Wolf Creek, MT

12:09 PM MDT on April 27, 2015 (GMT -0600)
MesoWest | | Change Station
CLOSE
Current Station
Personal Weather Station
Location: Canyon Creek, MT
Elevation: 4199 ft
Nearby Weather Stations

Elev 4199 ft 46.89 °N, 112.11 °W | Updated 54 minutes ago

Clear
Clear
46 °F
Feels Like 40 °F
N
13
Wind Variable Wind from ESE
Gusts 17.0 mph

Today
High -- | Low -- °F
--% Chance of Precip.
Yesterday
High -- | Low -- °F
Precip. -- in
6:19 AM 8:33 PM
Waxing Gibbous, 66% visible
Pressure 30.40 in
Visibility 10.0 miles
Clouds Clear
Windchill 40 °F
Dew Point 34 °F
Humidity 61%
Rainfall in
Snow Depth Not available.
UV 8 out of 12
Pollen 1.80 out of 12
Air Quality Not available.
Flu Activity Local Activity
METAR KHLN 271753Z VRB03KT 10SM CLR 11/01 A3031 RMK AO2 SLP293 T01110006 10111 21033 58013

More Conditions Fewer Conditions

Pressure 30.40 in
Visibility 10.0 miles
Clouds Clear
Windchill 40 °F
Dew Point 34 °F
Humidity 61%
Rainfall in
Snow Depth Not available.
UV 8 out of 12
Pollen 1.80 out of 12
Air Quality Not available.
Flu Activity Local Activity
METAR KHLN 271753Z VRB03KT 10SM CLR 11/01 A3031 RMK AO2 SLP293 T01110006 10111 21033 58013

More Conditions Fewer Conditions

10-Day Weather Forecast

Almanac

Astronomy

Apr. 27, 2015 Rise Set
Actual Time
Civil Twilight
Nautical Twilight
Astronomical Twilight
Moon
Length of Visible Light
Length of Day
Tomorrow will be .
, % of the Moon is Illuminated

Today's Extremes

State Highs State Lows

Community

WunderPhotos

Upload Photos

1,817,386 photos uploaded!

WunderBlogs® & News

Nearby

Air Quality

  Air Quality AQ Index Pollutant
Not available.

Snow Depth

Station Depth Elevation

Earthquake Activity

City Distance Mag. Time & Date
Minimum magnitude displayed is 2.5.

Coastal Water Temperatures

Place Temperature

Stations

Nearby Weather Stations

Station Location Temp. Windchill Dew Point Humidity Wind Precip. Elev Updated Type